Time;durP1;ratioP1;P1;durP2;ratioP2;P2;SDS_P1;SDS_P2;PMS_P1;PMS_P2;Temp;Humidity;BMP_temperature;BMP_pressure;BME280_temperature;BME280_humidity;BME280_pressure;Samples;Min_cycle;Max_cycle;Signal;HPM_P1;HPM_P2
2022/03/09 00:00:25;;;;;;;23.10;13.70;;;;;;;-6.39;79.41;97380.52;109933;1249;60495;-64
2022/03/09 00:03:05;;;;;;;22.00;12.00;;;;;;;-6.42;79.05;97378.16;109906;1250;71889;-62
2022/03/09 00:05:35;;;;;;;39.90;20.10;;;;;;;-6.46;78.32;97376.16;109849;1250;66803;-64
2022/03/09 00:08:05;;;;;;;31.70;19.20;;;;;;;-6.53;79.22;97378.91;109769;1251;68461;-66
2022/03/09 00:10:35;;;;;;;36.60;22.10;;;;;;;-6.62;80.13;97381.34;109881;1250;60612;-64
2022/03/09 00:13:05;;;;;;;39.10;21.70;;;;;;;-6.71;80.24;97384.09;109851;1250;60492;-65
2022/03/09 00:15:34;;;;;;;30.60;16.70;;;;;;;-6.78;80.79;97383.96;109879;1251;71587;-66
2022/03/09 00:18:04;;;;;;;39.90;24.20;;;;;;;-6.85;80.81;97384.50;109811;1249;69002;-64
2022/03/09 00:20:34;;;;;;;41.50;23.30;;;;;;;-6.92;82.79;97383.17;109735;1252;69349;-65
2022/03/09 00:23:04;;;;;;;44.50;24.50;;;;;;;-6.95;83.34;97380.48;109817;1251;60507;-62
2022/03/09 00:25:34;;;;;;;42.50;23.80;;;;;;;-6.98;83.09;97378.29;109983;1249;60923;-61
2022/03/09 00:28:05;;;;;;;36.70;20.00;;;;;;;-7.00;82.28;97381.84;109587;1251;71571;-62
2022/03/09 00:30:35;;;;;;;47.10;25.40;;;;;;;-7.00;83.25;97376.77;110007;1250;67659;-62
2022/03/09 00:33:05;;;;;;;50.20;26.80;;;;;;;-7.00;84.91;97377.12;109803;1249;67749;-62
2022/03/09 00:35:38;;;;;;;;;;;;;;;-7.13;83.51;97374.27;109852;1250;60510;-62
2022/03/09 00:38:10;;;;;;;48.90;28.80;;;;;;;-7.23;82.60;97375.85;109928;1249;60906;-64
2022/03/09 00:40:40;;;;;;;62.10;31.70;;;;;;;-7.35;83.25;97374.86;109644;1252;71535;-63
2022/03/09 00:43:10;;;;;;;31.90;18.70;;;;;;;-7.45;84.50;97370.83;109745;1250;67748;-62
2022/03/09 00:45:44;;;;;;;32.30;19.00;;;;;;;-7.43;84.02;97364.89;109858;1250;68893;-62
2022/03/09 00:48:14;;;;;;;39.10;21.10;;;;;;;-7.40;82.44;97369.11;109742;1250;60555;-64
2022/03/09 00:50:44;;;;;;;;;;;;;;;-7.39;82.33;97372.48;109843;1250;60486;-66
2022/03/09 00:53:15;;;;;;;35.70;19.90;;;;;;;-7.41;82.02;97379.95;109865;1251;72522;-62
2022/03/09 00:55:45;;;;;;;38.60;20.90;;;;;;;-7.44;82.31;97376.73;109836;1251;67906;-63
2022/03/09 00:58:15;;;;;;;39.40;23.30;;;;;;;-7.48;82.84;97378.10;109679;1251;69325;-65
2022/03/09 01:00:45;;;;;;;30.70;18.80;;;;;;;-7.51;83.75;97383.70;109868;1250;60534;-61
2022/03/09 01:03:16;;;;;;;26.10;15.70;;;;;;;-7.52;83.13;97381.34;109745;1252;60441;-62
2022/03/09 01:05:46;;;;;;;35.50;20.20;;;;;;;-7.54;82.85;97374.73;109806;1250;71384;-62
2022/03/09 01:08:15;;;;;;;48.90;25.00;;;;;;;-7.54;83.35;97377.95;109720;1252;67455;-61
2022/03/09 01:10:45;;;;;;;42.30;24.10;;;;;;;-7.54;84.96;97374.06;109723;1252;69441;-61
2022/03/09 01:13:14;;;;;;;52.00;25.20;;;;;;;-7.49;85.53;97371.50;109824;1250;60557;-67
2022/03/09 01:15:44;;;;;;;58.70;31.80;;;;;;;-7.39;86.18;97374.87;109644;1251;60485;-67
2022/03/09 01:18:14;;;;;;;;;;;;;;;-7.27;87.79;97375.34;109808;1250;71418;-64
2022/03/09 01:20:47;;;;;;;30.40;18.70;;;;;;;-7.17;87.12;97382.09;109828;1250;68443;-62
2022/03/09 01:23:17;;;;;;;31.40;17.70;;;;;;;-7.09;83.72;97385.12;109929;1250;69419;-62
2022/03/09 01:25:48;;;;;;;28.90;18.00;;;;;;;-7.07;82.23;97383.74;109799;1250;60554;-62
2022/03/09 01:28:18;;;;;;;35.30;18.00;;;;;;;-7.07;81.77;97383.23;109572;1252;60522;-63
2022/03/09 01:30:49;;;;;;;28.80;16.20;;;;;;;-7.00;81.44;97384.73;109737;1250;72321;-65
2022/03/09 01:33:20;;;;;;;29.90;15.70;;;;;;;-6.96;81.79;97385.06;109520;1253;67801;-61
2022/03/09 01:35:50;;;;;;;28.80;16.50;;;;;;;-6.98;81.78;97391.51;109684;1250;69427;-67
2022/03/09 01:38:21;;;;;;;;;;;;;;;-7.05;82.10;97391.54;109800;1250;60558;-65
2022/03/09 01:40:51;;;;;;;;;;;;;;;-7.06;81.65;97394.25;109756;1251;60496;-63
2022/03/09 01:43:22;;;;;;;27.70;12.20;;;;;;;-7.07;81.17;97395.77;109587;1253;72385;-64
2022/03/09 01:45:53;;;;;;;24.60;15.10;;;;;;;-7.07;81.00;97393.41;109885;1250;68592;-66
2022/03/09 01:48:23;;;;;;;23.70;14.60;;;;;;;-7.03;81.18;97392.54;109793;1251;67571;-60
2022/03/09 01:50:55;;;;;;;29.70;17.10;;;;;;;-6.97;81.67;97391.50;109879;1250;60862;-63
2022/03/09 01:53:26;;;;;;;30.50;17.50;;;;;;;-6.94;81.78;97390.98;109781;1249;60410;-62
2022/03/09 01:55:56;;;;;;;33.20;17.60;;;;;;;-6.91;82.31;97386.22;109767;1250;72410;-62
2022/03/09 01:58:26;;;;;;;32.50;18.00;;;;;;;-6.83;81.69;97389.58;109854;1251;68575;-61
2022/03/09 02:00:58;;;;;;;31.50;18.20;;;;;;;-6.74;81.81;97386.64;109820;1250;68621;-62
2022/03/09 02:03:28;;;;;;;28.60;16.70;;;;;;;-6.70;81.65;97389.85;109810;1250;60576;-63
2022/03/09 02:06:00;;;;;;;24.90;15.50;;;;;;;-6.67;81.60;97384.57;109831;1251;60905;-61
2022/03/09 02:11:20;;;;;;;16.50;10.00;;;;;;;-6.60;81.14;97387.25;109814;1250;67759;-64
2022/03/09 02:13:50;;;;;;;37.10;20.60;;;;;;;-6.53;80.47;97384.34;109785;1251;69428;-64
2022/03/09 02:16:20;;;;;;;39.40;22.70;;;;;;;-6.45;80.76;97383.78;109828;1251;60503;-67
2022/03/09 02:18:50;;;;;;;42.50;22.30;;;;;;;-6.42;81.16;97386.64;109795;1250;60701;-67
2022/03/09 02:21:22;;;;;;;;;;;;;;;-6.37;81.94;97386.79;109874;1252;71389;-62
2022/03/09 02:23:55;;;;;;;29.70;15.70;;;;;;;-6.34;81.64;97383.04;109861;1250;68645;-63
2022/03/09 02:26:25;;;;;;;26.70;14.50;;;;;;;-6.29;81.08;97386.73;109853;1250;69617;-61
2022/03/09 02:28:55;;;;;;;;;;;;;;;-6.24;80.01;97386.86;109625;1251;60635;-62
2022/03/09 02:31:25;;;;;;;42.60;23.00;;;;;;;-6.24;79.91;97382.97;109674;1251;60982;-61
2022/03/09 02:33:56;;;;;;;40.80;23.30;;;;;;;-6.31;81.05;97388.44;109697;1250;71598;-61
2022/03/09 02:36:28;;;;;;;36.10;19.10;;;;;;;-6.39;80.96;97391.38;109758;1250;68463;-64
2022/03/09 02:38:58;;;;;;;46.30;24.70;;;;;;;-6.40;80.49;97391.04;109982;1250;69215;-65
2022/03/09 02:41:33;;;;;;;46.50;27.90;;;;;;;-6.39;80.97;97390.18;109774;1251;60583;-64
2022/03/09 02:44:04;;;;;;;32.20;19.40;;;;;;;-6.40;81.51;97391.21;109401;1251;627656;-65
2022/03/09 02:46:34;;;;;;;28.60;17.10;;;;;;;-6.39;80.85;97387.47;109650;1250;72215;-65
2022/03/09 02:49:05;;;;;;;;;;;;;;;-6.37;80.25;97384.41;110072;1250;67819;-65
2022/03/09 02:51:35;;;;;;;31.60;16.20;;;;;;;-6.34;79.83;97382.52;109726;1251;69361;-65
2022/03/09 02:54:05;;;;;;;42.10;21.90;;;;;;;-6.31;80.59;97385.05;109646;1252;60526;-62
2022/03/09 02:56:36;;;;;;;36.50;20.20;;;;;;;-6.31;81.65;97386.07;109784;1251;60476;-63
2022/03/09 02:59:07;;;;;;;34.90;20.00;;;;;;;-6.29;80.92;97388.08;109547;1253;72143;-62
2022/03/09 03:01:38;;;;;;;30.70;16.80;;;;;;;-6.26;80.24;97390.61;109673;1251;68410;-61
2022/03/09 03:04:07;;;;;;;30.00;15.30;;;;;;;-6.22;79.92;97391.95;109749;1250;68793;-61
2022/03/09 03:06:38;;;;;;;27.60;16.60;;;;;;;-6.18;79.47;97394.80;109730;1251;60518;-61
2022/03/09 03:09:08;;;;;;;28.90;20.50;;;;;;;-6.13;79.34;97391.03;110071;1250;60503;-62
2022/03/09 03:11:38;;;;;;;45.50;23.60;;;;;;;-6.10;79.97;97390.67;109846;1251;72366;-63
2022/03/09 03:14:09;;;;;;;24.30;15.20;;;;;;;-6.07;80.02;97391.33;109762;1251;68444;-63
2022/03/09 03:16:40;;;;;;;31.80;18.60;;;;;;;-6.01;79.86;97395.52;109876;1251;69428;-66
2022/03/09 03:19:10;;;;;;;29.30;17.90;;;;;;;-5.96;78.99;97392.94;110047;1250;60556;-65
2022/03/09 03:21:40;;;;;;;;;;;;;;;-5.93;78.93;97396.31;109773;1250;60629;-61
2022/03/09 03:24:09;;;;;;;24.60;14.70;;;;;;;-5.91;78.99;97391.86;109715;1253;72346;-63
2022/03/09 03:26:39;;;;;;;18.30;12.90;;;;;;;-5.88;78.61;97391.48;109768;1251;67705;-62
2022/03/09 03:29:09;;;;;;;;;;;;;;;-5.85;78.21;97392.82;109845;1251;69853;-63
2022/03/09 03:31:39;;;;;;;21.20;12.60;;;;;;;-5.83;78.45;97394.66;109857;1251;60479;-63
2022/03/09 03:34:09;;;;;;;30.40;17.60;;;;;;;-5.80;78.17;97391.25;109831;1251;60946;-61
2022/03/09 03:36:39;;;;;;;21.60;14.00;;;;;;;-5.79;77.88;97391.58;109784;1251;71613;-60
2022/03/09 03:39:09;;;;;;;32.40;18.30;;;;;;;-5.76;77.50;97392.40;109752;1251;68561;-65
2022/03/09 03:41:39;;;;;;;23.40;15.30;;;;;;;-5.74;77.79;97391.38;109815;1250;70161;-63
2022/03/09 03:44:10;;;;;;;32.50;19.30;;;;;;;-5.72;78.22;97392.05;109891;1250;60506;-66
2022/03/09 03:46:41;;;;;;;27.60;16.70;;;;;;;-5.70;78.12;97385.55;109763;1251;60483;-62
2022/03/09 03:49:11;;;;;;;42.90;24.10;;;;;;;-5.66;77.95;97382.12;109745;1251;71503;-62
2022/03/09 03:51:41;;;;;;;31.40;20.90;;;;;;;-5.65;80.01;97378.73;109691;1253;68389;-61
2022/03/09 03:54:12;;;;;;;48.30;26.70;;;;;;;-5.62;80.46;97380.41;109745;1250;69299;-61
2022/03/09 03:56:42;;;;;;;29.60;18.90;;;;;;;-5.61;80.24;97381.75;109743;1251;60542;-65
2022/03/09 03:59:11;;;;;;;25.20;15.50;;;;;;;-5.59;79.22;97379.35;109820;1251;60504;-62
2022/03/09 04:01:42;;;;;;;46.80;26.00;;;;;;;-5.57;78.72;97375.77;109846;1251;71584;-62
2022/03/09 04:04:12;;;;;;;36.10;22.00;;;;;;;-5.55;79.63;97376.58;109752;1250;67789;-62
2022/03/09 04:06:42;;;;;;;30.70;20.80;;;;;;;-5.53;78.56;97375.89;109857;1251;69469;-63
2022/03/09 04:09:13;;;;;;;33.70;20.40;;;;;;;-5.50;78.49;97373.48;109803;1251;60549;-63
2022/03/09 04:11:42;;;;;;;28.20;17.00;;;;;;;-5.49;78.62;97376.89;109776;1251;60493;-64
2022/03/09 04:14:12;;;;;;;25.60;16.50;;;;;;;-5.48;78.29;97375.86;109729;1252;72221;-61
2022/03/09 04:16:45;;;;;;;49.80;27.30;;;;;;;-5.47;78.03;97374.46;109623;1253;68430;-63
2022/03/09 04:19:14;;;;;;;52.70;28.80;;;;;;;-5.50;80.68;97370.60;109834;1251;68581;-60
2022/03/09 04:21:45;;;;;;;39.80;21.70;;;;;;;-5.51;80.86;97368.23;109824;1251;60515;-62
2022/03/09 04:24:14;;;;;;;34.10;18.60;;;;;;;-5.48;79.71;97369.73;109885;1251;60474;-64
2022/03/09 04:26:46;;;;;;;26.70;17.20;;;;;;;-5.45;78.88;97371.08;109667;1251;71441;-66
2022/03/09 04:29:16;;;;;;;29.60;17.20;;;;;;;-5.43;78.55;97369.16;109539;1251;68443;-65
2022/03/09 04:31:46;;;;;;;30.10;18.60;;;;;;;-5.41;78.86;97372.38;109826;1251;69392;-65
2022/03/09 04:34:15;;;;;;;28.40;18.00;;;;;;;-5.39;78.60;97376.26;109582;1254;60582;-65
2022/03/09 04:36:45;;;;;;;26.70;16.00;;;;;;;-5.38;78.44;97375.73;109865;1251;60453;-66
2022/03/09 04:39:14;;;;;;;26.50;15.50;;;;;;;-5.36;78.76;97376.08;109854;1251;72249;-63
2022/03/09 04:41:44;;;;;;;27.80;17.10;;;;;;;-5.33;78.09;97373.15;109798;1251;68461;-61
2022/03/09 04:44:14;;;;;;;32.60;18.60;;;;;;;-5.27;77.40;97373.08;109703;1250;69101;-63
2022/03/09 04:46:43;;;;;;;46.00;28.70;;;;;;;-5.26;77.45;97377.14;109691;1251;60497;-61
2022/03/09 04:49:13;;;;;;;38.30;22.90;;;;;;;-5.23;77.49;97379.67;109732;1250;60498;-61
2022/03/09 04:51:43;;;;;;;39.60;24.00;;;;;;;-5.20;77.63;97383.02;109829;1251;70935;-61
2022/03/09 04:54:14;;;;;;;40.30;20.50;;;;;;;-5.22;77.59;97383.39;109695;1251;68602;-61
2022/03/09 04:56:44;;;;;;;44.90;25.50;;;;;;;-5.24;78.19;97388.50;109710;1251;67644;-65
2022/03/09 04:59:17;;;;;;;31.80;18.80;;;;;;;-5.24;78.01;97390.36;109685;1251;60506;-65
2022/03/09 05:01:46;;;;;;;36.30;20.30;;;;;;;-5.24;78.48;97393.60;109794;1251;60552;-66
2022/03/09 05:04:16;;;;;;;29.80;17.20;;;;;;;-5.23;78.37;97391.55;109560;1252;72334;-65
2022/03/09 05:06:46;;;;;;;26.70;15.00;;;;;;;-5.22;77.67;97391.38;109738;1250;67811;-63
2022/03/09 05:09:15;;;;;;;35.70;21.50;;;;;;;-5.20;77.12;97396.11;109768;1250;68896;-65
2022/03/09 05:11:45;;;;;;;38.10;24.80;;;;;;;-5.20;78.24;97401.71;109798;1251;60576;-61
2022/03/09 05:14:14;;;;;;;30.20;17.70;;;;;;;-5.18;78.39;97401.52;109648;1251;60553;-64
2022/03/09 05:16:43;;;;;;;36.00;21.50;;;;;;;-5.16;78.77;97401.67;109757;1249;71767;-61
2022/03/09 05:19:13;;;;;;;62.50;33.90;;;;;;;-5.14;79.73;97401.64;109806;1249;68627;-62
2022/03/09 05:21:43;;;;;;;41.00;24.60;;;;;;;-5.16;80.38;97402.35;109781;1250;69459;-65
2022/03/09 05:24:32;;;;;;;42.10;23.40;;;;;;;-5.14;79.35;97403.68;109657;1253;60631;-61
2022/03/09 05:27:02;;;;;;;32.00;19.20;;;;;;;-5.10;78.75;97407.39;109809;1251;60511;-62
2022/03/09 05:29:32;;;;;;;30.70;17.80;;;;;;;-5.04;78.38;97411.58;109702;1250;72460;-64
2022/03/09 05:32:01;;;;;;;22.70;16.10;;;;;;;-4.99;78.03;97414.57;109813;1251;68598;-62
2022/03/09 05:34:30;;;;;;;40.40;24.80;;;;;;;-4.92;77.86;97420.45;109579;1251;68779;-63
2022/03/09 05:37:00;;;;;;;29.20;19.10;;;;;;;-4.86;78.22;97420.20;109640;1251;60542;-66
2022/03/09 05:39:29;;;;;;;26.80;17.10;;;;;;;-4.78;76.98;97426.56;109592;1253;60593;-67
2022/03/09 05:41:59;;;;;;;26.30;15.20;;;;;;;-4.73;76.89;97429.91;109641;1251;72581;-65
2022/03/09 05:44:28;;;;;;;31.00;19.30;;;;;;;-4.69;77.30;97434.11;109806;1250;68718;-65
2022/03/09 05:46:58;;;;;;;23.40;15.00;;;;;;;-4.64;77.02;97434.73;109830;1251;69526;-64
2022/03/09 05:49:28;;;;;;;30.60;19.20;;;;;;;-4.57;76.79;97436.88;109821;1251;60553;-66
2022/03/09 05:51:58;;;;;;;42.10;23.40;;;;;;;-4.50;76.76;97442.91;109735;1251;60560;-66
2022/03/09 05:54:27;;;;;;;31.90;19.60;;;;;;;-4.44;76.96;97443.67;109526;1254;72033;-66
2022/03/09 05:56:57;;;;;;;32.70;20.40;;;;;;;-4.37;76.63;97448.17;109659;1251;68667;-69
2022/03/09 05:59:27;;;;;;;23.70;14.30;;;;;;;-4.32;76.52;97448.28;109569;1251;68650;-63
2022/03/09 06:01:56;;;;;;;25.00;13.90;;;;;;;-4.25;76.17;97455.34;109631;1251;60637;-60
2022/03/09 06:04:25;;;;;;;23.80;14.40;;;;;;;-4.19;75.12;97457.12;109695;1250;60492;-62
2022/03/09 06:06:55;;;;;;;23.40;13.70;;;;;;;-4.13;74.58;97459.93;109627;1250;71713;-65
2022/03/09 06:09:25;;;;;;;19.50;12.90;;;;;;;-4.05;74.24;97462.73;109651;1252;68492;-67
2022/03/09 06:11:54;;;;;;;18.40;11.20;;;;;;;-3.99;73.99;97465.36;109633;1251;69402;-62
2022/03/09 06:14:24;;;;;;;22.20;13.20;;;;;;;-3.87;73.73;97470.46;109771;1251;60580;-65
2022/03/09 06:16:53;;;;;;;15.30;11.70;;;;;;;-3.76;73.62;97474.21;109676;1251;60489;-66
2022/03/09 06:19:22;;;;;;;19.30;12.10;;;;;;;-3.66;73.18;97475.60;109632;1251;72625;-68
2022/03/09 06:21:53;;;;;;;25.80;15.30;;;;;;;-3.56;73.05;97473.56;109879;1251;68116;-68
2022/03/09 06:24:22;;;;;;;28.30;19.20;;;;;;;-3.45;73.18;97471.86;109790;1250;68687;-63
2022/03/09 06:26:54;;;;;;;35.40;18.70;;;;;;;-3.34;73.06;97474.41;109517;1251;60492;-64
2022/03/09 06:29:24;;;;;;;27.40;17.10;;;;;;;-3.22;72.49;97475.73;109616;1251;60498;-63
2022/03/09 06:31:56;;;;;;;29.80;15.80;;;;;;;-3.10;72.47;97483.88;109818;1251;72321;-63
2022/03/09 06:34:25;;;;;;;31.90;20.60;;;;;;;-2.95;71.96;97480.73;109846;1251;67906;-64
2022/03/09 06:36:57;;;;;;;29.00;19.60;;;;;;;-2.81;71.71;97478.42;109776;1251;69562;-63
2022/03/09 06:39:27;;;;;;;28.60;17.80;;;;;;;-2.61;71.91;97479.39;109605;1252;60540;-66
2022/03/09 06:41:59;;;;;;;25.50;16.30;;;;;;;-2.30;71.18;97482.88;109660;1251;60461;-65
2022/03/09 06:44:29;;;;;;;28.20;18.00;;;;;;;-1.80;70.97;97481.45;109601;1251;72594;-68
2022/03/09 06:47:04;;;;;;;17.60;12.80;;;;;;;-0.94;67.96;97479.38;109811;1250;67821;-65
2022/03/09 06:49:33;;;;;;;17.80;12.30;;;;;;;0.09;64.94;97482.49;109678;1251;68217;-67
2022/03/09 06:52:03;;;;;;;22.20;12.70;;;;;;;1.02;60.75;97481.63;109568;1253;60542;-64
2022/03/09 06:54:32;;;;;;;16.60;11.20;;;;;;;1.69;56.86;97482.19;109736;1251;60511;-62
2022/03/09 06:57:02;;;;;;;15.90;11.30;;;;;;;2.21;53.30;97481.46;109739;1250;71674;-66
2022/03/09 06:59:31;;;;;;;15.60;12.90;;;;;;;2.99;55.44;97478.35;109757;1251;68221;-63
2022/03/09 07:02:00;;;;;;;16.70;12.80;;;;;;;3.88;52.20;97480.73;109739;1251;68644;-63
2022/03/09 07:04:30;;;;;;;13.40;9.80;;;;;;;4.30;48.78;97479.52;109718;1250;60642;-63
2022/03/09 07:06:59;;;;;;;17.00;12.30;;;;;;;4.82;49.59;97479.27;109745;1251;60479;-63
2022/03/09 07:09:29;;;;;;;;;;;;;;;5.10;46.22;97480.84;109715;1251;71398;-62
2022/03/09 07:11:58;;;;;;;14.60;10.80;;;;;;;5.19;47.07;97476.96;109782;1251;68640;-66
2022/03/09 07:14:28;;;;;;;18.10;11.40;;;;;;;4.88;44.79;97484.35;109699;1251;68672;-69
2022/03/09 07:16:58;;;;;;;15.20;12.10;;;;;;;4.57;43.98;97490.31;109667;1251;60573;-67
2022/03/09 07:19:29;;;;;;;15.40;11.70;;;;;;;4.88;45.19;97485.05;109546;1251;60553;-65
2022/03/09 07:21:58;;;;;;;12.20;10.30;;;;;;;5.11;43.04;97483.72;109617;1250;72453;-65
2022/03/09 07:24:27;;;;;;;14.40;11.60;;;;;;;5.56;41.68;97487.31;109585;1251;68025;-66
2022/03/09 07:26:57;;;;;;;11.20;9.10;;;;;;;5.50;40.42;97488.50;109602;1251;69453;-63
2022/03/09 07:29:26;;;;;;;16.00;12.00;;;;;;;5.42;40.43;97488.19;109710;1251;60548;-64
2022/03/09 07:31:57;;;;;;;14.80;11.40;;;;;;;5.55;40.17;97485.11;109755;1250;60532;-64
2022/03/09 07:34:27;;;;;;;15.40;11.00;;;;;;;6.16;41.34;97487.65;109744;1250;72369;-64
2022/03/09 07:36:59;;;;;;;14.90;11.30;;;;;;;6.83;37.57;97481.20;109647;1251;67861;-61
2022/03/09 07:39:29;;;;;;;16.60;11.80;;;;;;;6.85;37.13;97483.52;109680;1251;68641;-61
2022/03/09 07:42:00;;;;;;;13.80;10.70;;;;;;;7.17;36.07;97481.66;109746;1250;60542;-69
2022/03/09 07:44:30;;;;;;;14.80;11.00;;;;;;;7.62;37.97;97483.67;109557;1251;60902;-66
2022/03/09 07:47:02;;;;;;;14.00;11.60;;;;;;;8.30;36.34;97482.34;109734;1250;72410;-63
2022/03/09 07:49:34;;;;;;;12.60;10.30;;;;;;;8.79;34.00;97476.32;109574;1253;67945;-66
2022/03/09 07:52:05;;;;;;;11.30;8.40;;;;;;;8.91;32.10;97474.45;109645;1251;68792;-66
2022/03/09 07:54:34;;;;;;;10.60;9.30;;;;;;;8.53;30.73;97475.99;109736;1251;60508;-70
2022/03/09 07:57:04;;;;;;;9.20;7.50;;;;;;;7.76;30.95;97475.09;109832;1251;60498;-67
2022/03/09 07:59:33;;;;;;;11.80;8.50;;;;;;;8.50;31.30;97474.85;109732;1251;72382;-65
2022/03/09 08:02:03;;;;;;;9.30;7.70;;;;;;;8.88;31.69;97477.83;109597;1251;68602;-67
2022/03/09 08:04:32;;;;;;;9.20;7.30;;;;;;;8.80;29.99;97473.09;109795;1250;69800;-65
2022/03/09 08:07:02;;;;;;;9.10;6.90;;;;;;;9.04;29.07;97473.23;109659;1251;60538;-68
2022/03/09 08:09:31;;;;;;;9.40;7.00;;;;;;;8.12;27.82;97468.70;109482;1251;60573;-67
2022/03/09 08:12:01;;;;;;;9.10;7.20;;;;;;;8.05;29.26;97471.73;109744;1251;72354;-67
2022/03/09 08:14:31;;;;;;;8.80;7.00;;;;;;;7.62;28.83;97472.73;109676;1251;67945;-64
2022/03/09 08:17:00;;;;;;;7.90;6.50;;;;;;;7.79;29.63;97473.10;109602;1251;69534;-66
2022/03/09 08:19:35;;;;;;;8.10;6.70;;;;;;;8.35;28.81;97475.92;109822;1250;60529;-69
2022/03/09 08:22:04;;;;;;;7.60;6.50;;;;;;;7.87;27.98;97474.00;109573;1251;60487;-66
2022/03/09 08:24:34;;;;;;;9.00;7.00;;;;;;;7.99;27.39;97473.48;109621;1251;72491;-66
2022/03/09 08:27:06;;;;;;;7.90;6.30;;;;;;;8.32;28.92;97475.95;109829;1251;67950;-69
2022/03/09 08:29:35;;;;;;;8.90;6.30;;;;;;;8.80;26.71;97474.10;109568;1251;68754;-67
2022/03/09 08:32:04;;;;;;;7.20;5.20;;;;;;;9.22;27.53;97476.46;109821;1250;60491;-66
2022/03/09 08:34:33;;;;;;;8.60;6.80;;;;;;;10.17;27.12;97478.31;109700;1250;60543;-69
2022/03/09 08:37:04;;;;;;;8.70;6.40;;;;;;;10.95;25.80;97470.33;109610;1251;72497;-64
2022/03/09 08:39:33;;;;;;;8.00;6.80;;;;;;;10.86;25.23;97468.66;109695;1250;68481;-63
2022/03/09 08:42:02;;;;;;;6.80;5.30;;;;;;;10.52;23.84;97471.34;109763;1251;69233;-65
2022/03/09 08:44:42;;;;;;;7.60;5.10;;;;;;;10.56;23.52;97475.38;109800;1251;60607;-63
2022/03/09 08:47:11;;;;;;;5.80;5.00;;;;;;;10.88;23.41;97469.73;109621;1251;60534;-63
2022/03/09 08:49:40;;;;;;;6.50;5.10;;;;;;;11.09;23.14;97474.19;109621;1251;72422;-63
2022/03/09 08:52:11;;;;;;;6.60;5.60;;;;;;;11.72;22.62;97478.48;109704;1250;68583;-65
2022/03/09 08:54:40;;;;;;;7.10;5.00;;;;;;;12.10;22.33;97478.61;109566;1251;68831;-66
2022/03/09 08:57:10;;;;;;;6.80;5.50;;;;;;;12.32;22.35;97474.05;109788;1251;60568;-65
2022/03/09 08:59:39;;;;;;;6.20;5.60;;;;;;;12.42;21.33;97474.13;109647;1251;60485;-66
2022/03/09 09:02:08;;;;;;;5.60;4.80;;;;;;;12.22;21.24;97473.27;109567;1251;72429;-68
2022/03/09 09:04:38;;;;;;;5.40;4.60;;;;;;;11.73;20.80;97467.27;109655;1251;67854;-67
2022/03/09 09:07:07;;;;;;;4.60;4.10;;;;;;;12.09;21.66;97466.61;109482;1251;69253;-63
2022/03/09 09:09:37;;;;;;;5.10;3.70;;;;;;;11.58;20.47;97467.70;109669;1251;60496;-65
2022/03/09 09:12:07;;;;;;;4.30;3.30;;;;;;;12.43;20.79;97470.02;109815;1251;60493;-63
2022/03/09 09:14:36;;;;;;;6.60;4.40;;;;;;;12.51;20.44;97464.85;109619;1251;72213;-64
2022/03/09 09:17:07;;;;;;;5.60;4.10;;;;;;;11.40;19.83;97470.79;109776;1250;67829;-64
2022/03/09 09:19:56;;;;;;;4.60;3.70;;;;;;;9.62;20.09;97471.77;109671;1251;69788;-65
2022/03/09 09:22:25;;;;;;;5.00;4.10;;;;;;;8.07;21.73;97478.84;109829;1251;60571;-67
2022/03/09 09:24:55;;;;;;;5.30;3.60;;;;;;;7.71;22.20;97479.19;109659;1251;60585;-64
2022/03/09 09:27:24;;;;;;;4.60;3.90;;;;;;;6.96;22.66;97480.45;109801;1250;71590;-63
2022/03/09 09:30:12;;;;;;;5.50;4.20;;;;;;;6.44;23.32;97479.90;109574;1251;67589;-65
2022/03/09 09:32:42;;;;;;;4.70;4.10;;;;;;;6.75;23.59;97476.08;109648;1251;69507;-63
2022/03/09 09:35:11;;;;;;;4.60;3.90;;;;;;;6.04;23.89;97485.17;109673;1251;60480;-63
2022/03/09 09:37:42;;;;;;;4.50;3.60;;;;;;;5.61;24.73;97483.44;109569;1251;60552;-63
2022/03/09 09:40:13;;;;;;;5.90;4.00;;;;;;;5.79;24.80;97486.67;109764;1250;71652;-64
2022/03/09 09:42:43;;;;;;;4.80;3.60;;;;;;;5.67;24.98;97492.80;109858;1250;68752;-67
2022/03/09 09:45:21;;;;;;;4.00;3.60;;;;;;;5.23;25.51;97487.13;109808;1250;68751;-66
2022/03/09 09:47:51;;;;;;;5.60;4.20;;;;;;;5.27;25.38;97490.17;109803;1251;60552;-66
2022/03/09 09:50:20;;;;;;;5.40;4.00;;;;;;;5.00;25.85;97493.10;109901;1251;60544;-66
2022/03/09 09:52:52;;;;;;;5.50;4.10;;;;;;;4.85;25.96;97493.47;109695;1251;72308;-65
2022/03/09 09:55:26;;;;;;;4.20;3.30;;;;;;;4.75;26.09;97494.48;109802;1250;67678;-65
2022/03/09 09:57:56;;;;;;;5.00;3.60;;;;;;;4.85;26.81;97494.15;109577;1251;69117;-66
2022/03/09 10:00:25;;;;;;;6.00;4.40;;;;;;;5.20;26.15;97496.95;109822;1250;60571;-66
2022/03/09 10:03:04;;;;;;;5.50;4.20;;;;;;;5.34;25.75;97495.68;109670;1251;60519;-65
2022/03/09 10:05:33;;;;;;;5.50;4.40;;;;;;;5.36;26.28;97497.35;109655;1251;72461;-66
2022/03/09 10:08:06;;;;;;;5.00;4.30;;;;;;;5.10;26.42;97501.21;109869;1249;67729;-67
2022/03/09 10:10:53;;;;;;;5.40;4.20;;;;;;;5.03;26.54;97505.70;109759;1250;69748;-67
2022/03/09 10:13:26;;;;;;;4.20;3.60;;;;;;;4.94;25.98;97499.43;109772;1250;60491;-68
2022/03/09 10:16:13;;;;;;;6.40;4.40;;;;;;;5.24;25.90;97495.54;109754;1250;60486;-67
2022/03/09 10:18:55;;;;;;;6.10;4.50;;;;;;;6.00;25.86;97500.23;109602;1251;71900;-67
2022/03/09 10:21:26;;;;;;;5.50;4.20;;;;;;;7.82;24.45;97491.52;109686;1251;67836;-68
2022/03/09 10:24:07;;;;;;;4.10;3.60;;;;;;;9.19;22.41;97489.84;109730;1251;68965;-65
2022/03/09 10:26:36;;;;;;;3.80;3.40;;;;;;;8.92;21.71;97493.11;109745;1250;60565;-65
2022/03/09 10:29:10;;;;;;;4.30;3.30;;;;;;;9.27;21.97;97495.08;109850;1249;60510;-68
2022/03/09 10:31:42;;;;;;;5.90;3.80;;;;;;;8.70;21.06;97493.40;109776;1250;71561;-68
2022/03/09 10:34:20;;;;;;;4.60;4.00;;;;;;;8.00;21.54;97494.91;109842;1250;68418;-68
2022/03/09 10:36:57;;;;;;;4.70;3.80;;;;;;;7.22;22.47;97495.41;109664;1250;68830;-67
2022/03/09 10:39:30;;;;;;;4.30;3.80;;;;;;;6.74;23.31;97493.11;109914;1249;60577;-66
2022/03/09 10:41:59;;;;;;;5.30;4.00;;;;;;;6.04;24.00;97499.34;109852;1250;60493;-68
2022/03/09 10:44:46;;;;;;;4.20;3.40;;;;;;;5.85;24.02;97495.16;109967;1250;72235;-65
2022/03/09 10:47:39;;;;;;;5.60;3.50;;;;;;;6.02;24.67;97492.36;109865;1250;67863;-68
2022/03/09 10:50:11;;;;;;;4.20;3.50;;;;;;;6.32;25.09;97495.45;109896;1250;69501;-65
2022/03/09 10:52:42;;;;;;;4.30;3.90;;;;;;;6.00;25.08;97492.31;109939;1250;60463;-66
2022/03/09 10:55:31;;;;;;;4.80;3.80;;;;;;;5.48;25.38;97488.05;109950;1250;60531;-67
2022/03/09 10:58:34;;;;;;;4.50;3.20;;;;;;;5.85;25.35;97487.20;109883;1250;72373;-64
2022/03/09 11:01:03;;;;;;;4.30;3.90;;;;;;;5.86;24.97;97486.99;109581;1250;67857;-64
2022/03/09 11:03:34;;;;;;;6.10;4.30;;;;;;;5.30;25.34;97486.95;109922;1250;69525;-62
2022/03/09 11:06:05;;;;;;;5.70;4.00;;;;;;;5.13;25.95;97489.31;109906;1250;60566;-63
2022/03/09 11:08:36;;;;;;;5.60;3.80;;;;;;;5.05;25.92;97488.34;109854;1249;60439;-63
2022/03/09 11:11:08;;;;;;;4.60;3.30;;;;;;;4.96;26.11;97486.70;109889;1250;72182;-65
2022/03/09 11:13:38;;;;;;;5.20;4.30;;;;;;;4.90;26.33;97485.46;109966;1250;68276;-67
2022/03/09 11:16:08;;;;;;;5.00;4.50;;;;;;;4.84;26.18;97485.74;109704;1250;70047;-66
2022/03/09 11:18:37;;;;;;;4.90;4.00;;;;;;;5.33;25.90;97484.55;109928;1250;60469;-65
2022/03/09 11:21:09;;;;;;;4.20;3.80;;;;;;;5.42;25.59;97488.04;109803;1250;60497;-64
2022/03/09 11:23:41;;;;;;;5.70;4.30;;;;;;;5.21;24.59;97483.91;109800;1250;71591;-67
2022/03/09 11:26:21;;;;;;;6.30;4.30;;;;;;;5.45;25.04;97485.45;109726;1250;68400;-63
2022/03/09 11:29:02;;;;;;;4.50;4.10;;;;;;;5.38;25.09;97482.87;109785;1250;68680;-65
2022/03/09 11:31:52;;;;;;;5.30;4.20;;;;;;;5.55;25.48;97483.23;109605;1251;60536;-64
2022/03/09 11:34:31;;;;;;;;;;;;;;;7.60;24.11;97479.98;109638;1250;60567;-67
2022/03/09 11:37:15;;;;;;;5.60;4.20;;;;;;;9.87;21.50;97477.08;109703;1250;71707;-65
2022/03/09 11:39:47;;;;;;;5.60;3.40;;;;;;;11.88;20.04;97474.15;109699;1250;68687;-64